Time;durP1;ratioP1;P1;durP2;ratioP2;P2;SDS_P1;SDS_P2;PMS_P1;PMS_P2;Temp;Humidity;BMP_temperature;BMP_pressure;BME280_temperature;BME280_humidity;BME280_pressure;Samples;Min_cycle;Max_cycle;Signal;HPM_P1;HPM_P2
2022/03/28 00:09:26;;;;;;;14.05;5.45;;;;;;;9.22;58.36;100949.31;739608;1155;115371;-72
2022/03/28 00:24:28;;;;;;;9.40;5.23;;;;;;;9.10;58.45;100928.30;739951;1153;115354;-72
2022/03/28 00:39:30;;;;;;;14.87;5.37;;;;;;;8.93;59.85;100903.33;739842;1154;115032;-72
2022/03/28 00:54:32;;;;;;;125.18;38.68;;;;;;;8.78;60.16;100876.48;739875;1155;115083;-73
2022/03/28 01:09:35;;;;;;;270.48;87.23;;;;;;;8.68;61.29;100862.38;739037;1155;115733;-72
2022/03/28 01:24:39;;;;;;;46.53;23.97;;;;;;;8.49;61.44;100831.48;739253;1154;115474;-72
2022/03/28 01:39:41;;;;;;;24.08;10.13;;;;;;;8.43;63.65;100824.88;740217;1155;114548;-73
2022/03/28 01:54:43;;;;;;;25.48;10.33;;;;;;;8.38;63.45;100794.75;739478;1155;114154;-71
2022/03/28 02:09:45;;;;;;;20.90;9.75;;;;;;;8.27;64.83;100782.45;739003;1155;114955;-72
2022/03/28 02:24:47;;;;;;;72.20;24.05;;;;;;;8.13;66.06;100773.80;739377;1155;114607;-71
2022/03/28 02:39:49;;;;;;;44.45;19.03;;;;;;;8.03;66.38;100764.92;739300;1155;115509;-71
2022/03/28 02:54:52;;;;;;;20.20;10.15;;;;;;;7.81;66.81;100749.90;739205;1155;115414;-71
2022/03/28 03:09:54;;;;;;;35.18;16.95;;;;;;;7.71;67.88;100728.81;741868;1155;115316;-77
2022/03/28 03:24:56;;;;;;;35.70;12.88;;;;;;;7.61;68.33;100717.33;739699;1155;115428;-80
2022/03/28 03:39:58;;;;;;;15.13;8.73;;;;;;;7.51;68.95;100693.64;740685;1155;115421;-77
2022/03/28 03:55:00;;;;;;;13.57;5.97;;;;;;;7.37;69.98;100685.92;740817;1155;115526;-78
2022/03/28 04:10:03;;;;;;;17.63;8.63;;;;;;;7.27;71.30;100672.64;739182;1155;115298;-76
2022/03/28 04:25:07;;;;;;;12.38;6.38;;;;;;;7.12;71.91;100672.73;739961;1154;115531;-79
2022/03/28 04:40:12;;;;;;;12.53;5.78;;;;;;;7.06;72.06;100669.70;739357;1154;114396;-78
2022/03/28 04:55:14;;;;;;;12.38;6.68;;;;;;;7.10;72.93;100668.56;739480;1155;115265;-79
2022/03/28 05:10:16;;;;;;;14.40;6.95;;;;;;;7.06;74.34;100654.05;738997;1154;114640;-77
2022/03/28 05:25:18;;;;;;;20.80;11.48;;;;;;;7.22;75.41;100640.80;739000;1155;115657;-79
2022/03/28 05:40:21;;;;;;;24.08;10.33;;;;;;;7.47;74.96;100632.14;739019;1154;115325;-77
2022/03/28 05:55:23;;;;;;;17.90;9.07;;;;;;;7.76;75.96;100621.41;739196;1154;115345;-77
2022/03/28 06:10:26;;;;;;;15.25;7.35;;;;;;;8.24;77.46;100599.71;739338;1155;115287;-77
2022/03/28 06:25:29;;;;;;;19.23;7.13;;;;;;;8.83;76.79;100589.21;738824;1155;114601;-76
2022/03/28 06:40:35;;;;;;;13.00;6.80;;;;;;;9.47;77.04;100573.88;739191;1155;114466;-75
2022/03/28 06:55:37;;;;;;;14.55;7.50;;;;;;;9.93;77.98;100566.75;740542;1155;115177;-74
2022/03/28 07:10:39;;;;;;;17.48;8.00;;;;;;;10.49;76.59;100563.92;739498;1155;115124;-73
2022/03/28 07:25:42;;;;;;;34.13;12.58;;;;;;;11.07;76.01;100549.45;743575;1155;114650;-73
2022/03/28 07:40:45;;;;;;;20.55;9.65;;;;;;;11.64;74.07;100527.91;740133;1155;114894;-74
2022/03/28 07:55:47;;;;;;;16.20;7.93;;;;;;;12.07;71.90;100518.80;739486;1155;114040;-75
2022/03/28 08:10:49;;;;;;;14.10;7.30;;;;;;;12.87;69.91;100486.09;740095;1155;115261;-75
2022/03/28 08:25:51;;;;;;;13.98;6.58;;;;;;;13.27;66.82;100469.92;738962;1155;115226;-75
2022/03/28 08:40:54;;;;;;;10.48;6.18;;;;;;;13.84;64.76;100458.30;739316;1155;115739;-76
2022/03/28 08:55:57;;;;;;;10.68;5.70;;;;;;;14.19;63.21;100453.14;740135;1155;115562;-75
2022/03/28 09:10:59;;;;;;;14.40;6.38;;;;;;;14.81;61.70;100435.33;739040;1155;114335;-75
2022/03/28 09:26:23;;;;;;;12.17;5.90;;;;;;;15.26;59.68;100395.50;738840;1155;115002;-75
2022/03/28 09:41:28;;;;;;;14.45;6.28;;;;;;;15.63;58.42;100371.21;738944;1155;115332;-74
2022/03/28 09:56:30;;;;;;;12.68;6.53;;;;;;;16.43;57.56;100360.80;739019;1155;114300;-74
2022/03/28 10:11:33;;;;;;;36.30;18.57;;;;;;;16.66;54.95;100339.70;740144;1155;115156;-75
2022/03/28 10:26:38;;;;;;;24.58;10.75;;;;;;;17.19;54.51;100317.86;738908;1155;115236;-75
2022/03/28 10:41:41;;;;;;;22.87;8.17;;;;;;;17.24;53.89;100326.92;739087;1154;115997;-74
2022/03/28 10:56:46;;;;;;;13.83;7.03;;;;;;;18.18;52.28;100307.11;739218;1154;115435;-74
2022/03/28 11:12:04;;;;;;;36.98;22.05;;;;;;;18.27;51.58;100287.42;739867;1154;115201;-80
2022/03/28 11:27:14;;;;;;;11.20;7.27;;;;;;;18.03;51.61;100256.70;739262;1154;116107;-71
2022/03/28 11:42:23;;;;;;;12.43;7.45;;;;;;;18.41;49.92;100250.39;739850;1154;115498;-77
2022/03/28 12:12:49;;;;;;;11.50;5.45;;;;;;;18.86;49.31;100189.95;739459;1154;114791;-74
2022/03/28 12:27:59;;;;;;;15.03;6.40;;;;;;;18.60;49.39;100164.78;740166;1155;115697;-73
2022/03/28 12:43:04;;;;;;;12.03;6.20;;;;;;;19.68;47.96;100126.44;740841;1155;114964;-73
2022/03/28 12:58:07;;;;;;;17.77;9.57;;;;;;;19.67;48.28;100103.50;740716;1154;115229;-72
2022/03/28 13:13:09;;;;;;;15.48;6.98;;;;;;;19.89;47.87;100088.25;739735;1155;114897;-72
2022/03/28 13:28:24;;;;;;;17.47;7.20;;;;;;;20.22;46.96;100060.05;739581;1154;114505;-73
2022/03/28 13:43:26;;;;;;;10.33;6.13;;;;;;;20.67;46.41;100036.23;739963;1154;115150;-80
2022/03/28 13:58:29;;;;;;;9.67;4.90;;;;;;;24.84;42.54;100015.78;741243;1155;115302;-75
2022/03/28 14:13:38;;;;;;;6.13;4.33;;;;;;;29.37;37.48;99981.72;739698;1154;115068;-75
2022/03/28 14:28:40;;;;;;;17.73;6.05;;;;;;;27.19;35.76;99956.36;740144;1154;115182;-74
2022/03/28 14:43:43;;;;;;;15.50;5.30;;;;;;;22.11;40.22;99939.86;740367;1155;114055;-72
2022/03/28 14:58:46;;;;;;;26.33;16.00;;;;;;;23.02;41.95;99896.52;740157;1155;114045;-74
2022/03/28 15:13:49;;;;;;;7.00;4.30;;;;;;;30.59;37.25;99881.78;739796;1154;114827;-73
2022/03/28 15:28:52;;;;;;;7.13;5.05;;;;;;;25.27;37.46;99863.38;740831;1155;114640;-73
2022/03/28 15:43:59;;;;;;;26.43;12.45;;;;;;;23.99;40.32;99848.30;740199;1154;114968;-77
2022/03/28 15:59:17;;;;;;;16.88;8.23;;;;;;;20.66;42.65;99829.41;739681;1154;114308;-79
2022/03/28 16:14:23;;;;;;;34.65;15.75;;;;;;;24.56;39.67;99839.53;739862;1154;115779;-87
2022/03/28 16:29:28;;;;;;;65.58;28.33;;;;;;;19.88;42.76;99835.61;740046;1155;114231;-74
2022/03/28 16:44:34;;;;;;;15.87;8.27;;;;;;;17.91;44.09;99817.70;740121;1154;114648;-71
2022/03/28 16:59:38;;;;;;;19.07;10.30;;;;;;;16.68;45.61;99818.64;739337;1155;115406;-72
2022/03/28 17:14:45;;;;;;;85.13;47.83;;;;;;;15.68;46.56;99819.90;740107;1155;115319;-73
2022/03/28 17:29:56;;;;;;;17.00;9.90;;;;;;;15.09;47.82;99834.59;739890;1155;114240;-73
2022/03/28 17:45:06;;;;;;;19.63;9.30;;;;;;;14.46;49.22;99859.16;740132;1155;114222;-73
2022/03/28 18:00:14;;;;;;;;;;;;;;;13.75;50.34;99864.27;739607;1155;114176;-73
2022/03/28 18:15:21;;;;;;;34.70;15.78;;;;;;;13.38;49.96;99878.77;739967;1154;101612;-73
2022/03/28 18:30:31;;;;;;;16.48;8.28;;;;;;;12.92;51.67;99881.77;739846;1155;115360;-76
2022/03/28 18:45:37;;;;;;;13.70;7.63;;;;;;;12.47;53.27;99899.52;740103;1155;114316;-76
2022/03/28 19:00:45;;;;;;;13.63;7.25;;;;;;;11.88;55.19;99911.63;740956;1155;114089;-77
2022/03/28 19:16:07;;;;;;;29.93;12.43;;;;;;;11.25;57.34;99918.61;739897;1155;115352;-71
2022/03/28 19:31:09;;;;;;;19.83;8.08;;;;;;;10.76;58.69;99943.31;743377;1155;114569;-71
2022/03/28 19:46:12;;;;;;;40.30;15.30;;;;;;;10.13;61.57;99923.73;740448;1155;115382;-72
2022/03/28 20:01:36;;;;;;;20.63;12.98;;;;;;;9.69;62.82;99912.06;739413;1155;116000;-72
2022/03/28 20:16:39;;;;;;;19.68;8.23;;;;;;;9.30;64.26;99913.73;740016;1155;113968;-71
2022/03/28 20:31:42;;;;;;;17.10;8.75;;;;;;;8.93;63.99;99896.00;739853;1155;115334;-71
2022/03/28 20:46:45;;;;;;;21.28;8.10;;;;;;;8.56;66.49;99887.92;739637;1154;115274;-71
2022/03/28 21:01:52;;;;;;;11.73;6.85;;;;;;;8.37;67.32;99889.47;739323;1154;115202;-72
2022/03/28 21:16:54;;;;;;;13.20;6.63;;;;;;;8.16;67.43;99872.02;738897;1155;115201;-72
2022/03/28 21:31:58;;;;;;;12.53;6.93;;;;;;;7.81;69.93;99865.38;739211;1155;115147;-72
2022/03/28 21:47:00;;;;;;;12.53;6.83;;;;;;;7.63;71.10;99857.27;739285;1155;115280;-71
2022/03/28 22:02:02;;;;;;;15.53;9.08;;;;;;;7.54;71.08;99831.92;738663;1155;115132;-71
2022/03/28 22:17:05;;;;;;;16.20;7.73;;;;;;;7.45;72.77;99823.06;739099;1155;114898;-71
2022/03/28 22:32:09;;;;;;;12.48;6.68;;;;;;;7.48;73.38;99809.78;738791;1155;115345;-71
2022/03/28 22:47:11;;;;;;;16.13;8.15;;;;;;;7.31;73.59;99792.05;738961;1154;115312;-71
2022/03/28 23:02:13;;;;;;;17.33;7.80;;;;;;;6.97;75.60;99777.39;739393;1155;115373;-72
2022/03/28 23:17:15;;;;;;;18.80;8.85;;;;;;;6.79;76.51;99758.02;738787;1153;115447;-71
2022/03/28 23:32:17;;;;;;;15.53;8.93;;;;;;;6.72;78.13;99708.16;739010;1153;115348;-72
2022/03/28 23:47:19;;;;;;;19.90;9.70;;;;;;;6.70;80.91;99673.55;738882;1155;114589;-71
